sensor_id;sensor_type;location;lat;lon;timestamp;temperature;humidity
152;DHT22;68;48.792;9.164;2022-12-18T00:01:44;-6.60;96.10
152;DHT22;68;48.792;9.164;2022-12-18T00:04:24;-6.60;96.60
152;DHT22;68;48.792;9.164;2022-12-18T00:06:53;-6.70;96.70
152;DHT22;68;48.792;9.164;2022-12-18T00:09:20;-6.60;96.50
152;DHT22;68;48.792;9.164;2022-12-18T00:11:47;-6.70;96.80
152;DHT22;68;48.792;9.164;2022-12-18T00:14:14;-6.70;97.20
152;DHT22;68;48.792;9.164;2022-12-18T00:16:43;-6.80;96.90
152;DHT22;68;48.792;9.164;2022-12-18T00:19:11;-6.80;96.60
152;DHT22;68;48.792;9.164;2022-12-18T00:21:42;-6.80;96.40
152;DHT22;68;48.792;9.164;2022-12-18T00:24:11;-6.70;96.00
152;DHT22;68;48.792;9.164;2022-12-18T00:26:38;-6.70;96.00
152;DHT22;68;48.792;9.164;2022-12-18T00:29:07;-6.70;96.80
152;DHT22;68;48.792;9.164;2022-12-18T00:31:35;-6.70;96.70
152;DHT22;68;48.792;9.164;2022-12-18T00:34:02;-6.80;97.40
152;DHT22;68;48.792;9.164;2022-12-18T00:36:30;-6.80;97.50
152;DHT22;68;48.792;9.164;2022-12-18T00:38:59;-6.90;96.40
152;DHT22;68;48.792;9.164;2022-12-18T00:41:27;-6.90;96.50
152;DHT22;68;48.792;9.164;2022-12-18T00:44:10;-6.90;96.30
152;DHT22;68;48.792;9.164;2022-12-18T00:46:38;-6.80;95.20
152;DHT22;68;48.792;9.164;2022-12-18T00:49:04;-6.80;95.50
152;DHT22;68;48.792;9.164;2022-12-18T00:51:31;-6.60;96.10
152;DHT22;68;48.792;9.164;2022-12-18T00:53:58;-6.50;96.60
152;DHT22;68;48.792;9.164;2022-12-18T00:56:26;-6.50;97.70
152;DHT22;68;48.792;9.164;2022-12-18T00:58:53;-6.60;97.80
152;DHT22;68;48.792;9.164;2022-12-18T01:01:20;-6.50;98.10
152;DHT22;68;48.792;9.164;2022-12-18T01:03:47;-6.40;98.30
152;DHT22;68;48.792;9.164;2022-12-18T01:06:14;-6.40;98.90
152;DHT22;68;48.792;9.164;2022-12-18T01:08:42;-6.40;99.30
152;DHT22;68;48.792;9.164;2022-12-18T01:11:10;-6.50;99.20
152;DHT22;68;48.792;9.164;2022-12-18T01:13:38;-6.70;99.30
152;DHT22;68;48.792;9.164;2022-12-18T01:16:06;-6.80;98.50
152;DHT22;68;48.792;9.164;2022-12-18T01:18:32;-6.80;97.90
152;DHT22;68;48.792;9.164;2022-12-18T01:20:59;-6.90;97.90
152;DHT22;68;48.792;9.164;2022-12-18T01:23:26;-6.80;97.60
152;DHT22;68;48.792;9.164;2022-12-18T01:25:53;-6.90;97.90
152;DHT22;68;48.792;9.164;2022-12-18T01:28:20;-7.00;97.70
152;DHT22;68;48.792;9.164;2022-12-18T01:30:48;-6.90;97.60
152;DHT22;68;48.792;9.164;2022-12-18T01:33:14;-6.90;97.50
152;DHT22;68;48.792;9.164;2022-12-18T01:35:41;-7.00;97.80
152;DHT22;68;48.792;9.164;2022-12-18T01:38:09;-6.90;97.50
152;DHT22;68;48.792;9.164;2022-12-18T01:40:36;-6.90;97.40
152;DHT22;68;48.792;9.164;2022-12-18T01:43:03;-6.70;97.50
152;DHT22;68;48.792;9.164;2022-12-18T01:45:31;-6.70;97.90
152;DHT22;68;48.792;9.164;2022-12-18T01:48:01;-6.80;97.80
152;DHT22;68;48.792;9.164;2022-12-18T01:50:30;-6.70;97.40
152;DHT22;68;48.792;9.164;2022-12-18T01:53:00;-6.50;97.80
152;DHT22;68;48.792;9.164;2022-12-18T01:55:31;-6.70;98.20
152;DHT22;68;48.792;9.164;2022-12-18T01:57:59;-6.80;98.20
152;DHT22;68;48.792;9.164;2022-12-18T02:00:27;-6.80;98.10
152;DHT22;68;48.792;9.164;2022-12-18T02:02:54;-6.70;97.90
152;DHT22;68;48.792;9.164;2022-12-18T02:05:29;-6.70;97.90
152;DHT22;68;48.792;9.164;2022-12-18T02:08:08;-6.70;97.90
152;DHT22;68;48.792;9.164;2022-12-18T02:10:41;-6.60;97.50
152;DHT22;68;48.792;9.164;2022-12-18T02:13:14;-6.60;97.90
152;DHT22;68;48.792;9.164;2022-12-18T02:15:48;-6.50;97.80
152;DHT22;68;48.792;9.164;2022-12-18T02:18:19;-6.50;98.30
152;DHT22;68;48.792;9.164;2022-12-18T02:20:55;-6.50;97.80
152;DHT22;68;48.792;9.164;2022-12-18T02:23:38;-6.50;98.20
152;DHT22;68;48.792;9.164;2022-12-18T02:26:21;-6.40;98.30
152;DHT22;68;48.792;9.164;2022-12-18T02:28:52;-6.50;97.90
152;DHT22;68;48.792;9.164;2022-12-18T02:31:25;-6.40;97.40
152;DHT22;68;48.792;9.164;2022-12-18T02:33:56;-6.30;97.90
152;DHT22;68;48.792;9.164;2022-12-18T02:36:25;-6.20;98.30
152;DHT22;68;48.792;9.164;2022-12-18T02:38:54;-6.10;98.50
152;DHT22;68;48.792;9.164;2022-12-18T02:41:27;-6.00;98.60
152;DHT22;68;48.792;9.164;2022-12-18T02:43:56;-6.00;99.30
152;DHT22;68;48.792;9.164;2022-12-18T02:46:28;-6.10;99.40
152;DHT22;68;48.792;9.164;2022-12-18T02:49:04;-6.20;99.40
152;DHT22;68;48.792;9.164;2022-12-18T02:51:39;-6.10;99.20
152;DHT22;68;48.792;9.164;2022-12-18T02:54:13;-5.80;99.40
152;DHT22;68;48.792;9.164;2022-12-18T02:56:49;-5.80;99.40
152;DHT22;68;48.792;9.164;2022-12-18T02:59:19;-5.70;99.40
152;DHT22;68;48.792;9.164;2022-12-18T03:01:52;-5.70;99.40
152;DHT22;68;48.792;9.164;2022-12-18T03:04:25;-6.00;99.40
152;DHT22;68;48.792;9.164;2022-12-18T03:06:55;-6.00;99.40
152;DHT22;68;48.792;9.164;2022-12-18T03:09:28;-6.10;99.40
152;DHT22;68;48.792;9.164;2022-12-18T03:12:02;-6.30;99.40
152;DHT22;68;48.792;9.164;2022-12-18T03:14:54;-6.50;99.40
152;DHT22;68;48.792;9.164;2022-12-18T03:17:23;-6.60;99.20
152;DHT22;68;48.792;9.164;2022-12-18T03:19:52;-6.70;99.10
152;DHT22;68;48.792;9.164;2022-12-18T03:22:21;-6.70;99.20
152;DHT22;68;48.792;9.164;2022-12-18T03:24:49;-6.70;99.40
152;DHT22;68;48.792;9.164;2022-12-18T03:27:21;-6.70;99.10
152;DHT22;68;48.792;9.164;2022-12-18T03:29:52;-6.50;99.10
152;DHT22;68;48.792;9.164;2022-12-18T03:32:26;-6.50;99.40
152;DHT22;68;48.792;9.164;2022-12-18T03:34:58;-6.50;99.40
152;DHT22;68;48.792;9.164;2022-12-18T03:37:26;-6.50;99.40
152;DHT22;68;48.792;9.164;2022-12-18T03:39:53;-6.50;99.40
152;DHT22;68;48.792;9.164;2022-12-18T03:42:25;-6.60;99.40
152;DHT22;68;48.792;9.164;2022-12-18T03:44:59;-6.60;99.40
152;DHT22;68;48.792;9.164;2022-12-18T03:47:32;-6.60;99.40
152;DHT22;68;48.792;9.164;2022-12-18T03:50:07;-6.50;99.40
152;DHT22;68;48.792;9.164;2022-12-18T03:52:41;-6.50;99.40
152;DHT22;68;48.792;9.164;2022-12-18T03:55:12;-6.50;99.40
152;DHT22;68;48.792;9.164;2022-12-18T03:57:42;-6.60;99.40
152;DHT22;68;48.792;9.164;2022-12-18T04:00:12;-6.50;99.40
152;DHT22;68;48.792;9.164;2022-12-18T04:02:44;-6.40;99.40
152;DHT22;68;48.792;9.164;2022-12-18T04:05:12;-6.20;99.40
152;DHT22;68;48.792;9.164;2022-12-18T04:07:40;-6.20;99.40
152;DHT22;68;48.792;9.164;2022-12-18T04:10:11;-6.30;99.40
152;DHT22;68;48.792;9.164;2022-12-18T04:12:40;-6.30;99.40
152;DHT22;68;48.792;9.164;2022-12-18T04:15:08;-6.30;99.40
152;DHT22;68;48.792;9.164;2022-12-18T04:17:35;-6.20;99.40
152;DHT22;68;48.792;9.164;2022-12-18T04:20:03;-6.20;99.00
152;DHT22;68;48.792;9.164;2022-12-18T04:22:30;-6.20;98.90
152;DHT22;68;48.792;9.164;2022-12-18T04:24:57;-6.20;98.80
152;DHT22;68;48.792;9.164;2022-12-18T04:27:23;-6.30;98.80
152;DHT22;68;48.792;9.164;2022-12-18T04:29:51;-6.40;98.90
152;DHT22;68;48.792;9.164;2022-12-18T04:32:18;-6.60;99.10
152;DHT22;68;48.792;9.164;2022-12-18T04:34:45;-6.60;99.30
152;DHT22;68;48.792;9.164;2022-12-18T04:37:12;-6.50;99.40
152;DHT22;68;48.792;9.164;2022-12-18T04:39:38;-6.60;99.00
152;DHT22;68;48.792;9.164;2022-12-18T04:42:05;-6.60;98.90
152;DHT22;68;48.792;9.164;2022-12-18T04:44:32;-6.60;99.00
152;DHT22;68;48.792;9.164;2022-12-18T04:47:00;-6.70;98.90
152;DHT22;68;48.792;9.164;2022-12-18T04:49:27;-6.70;98.80
152;DHT22;68;48.792;9.164;2022-12-18T04:51:53;-6.80;98.80
152;DHT22;68;48.792;9.164;2022-12-18T04:54:20;-6.80;98.90
152;DHT22;68;48.792;9.164;2022-12-18T04:56:47;-6.90;98.90
152;DHT22;68;48.792;9.164;2022-12-18T04:59:14;-6.90;99.10
152;DHT22;68;48.792;9.164;2022-12-18T05:04:09;-6.80;98.90
152;DHT22;68;48.792;9.164;2022-12-18T05:06:36;-6.90;98.90
152;DHT22;68;48.792;9.164;2022-12-18T05:09:03;-7.20;99.20
152;DHT22;68;48.792;9.164;2022-12-18T05:11:29;-7.20;99.40
152;DHT22;68;48.792;9.164;2022-12-18T05:13:56;-7.00;99.40
152;DHT22;68;48.792;9.164;2022-12-18T05:16:23;-7.00;99.40
152;DHT22;68;48.792;9.164;2022-12-18T05:18:50;-6.90;99.40
152;DHT22;68;48.792;9.164;2022-12-18T05:21:18;-6.90;99.30
152;DHT22;68;48.792;9.164;2022-12-18T05:23:45;-6.80;99.20
152;DHT22;68;48.792;9.164;2022-12-18T05:26:15;-6.70;98.90
152;DHT22;68;48.792;9.164;2022-12-18T05:28:43;-6.90;98.60
152;DHT22;68;48.792;9.164;2022-12-18T05:31:10;-6.90;98.90
152;DHT22;68;48.792;9.164;2022-12-18T05:33:37;-6.80;98.80
152;DHT22;68;48.792;9.164;2022-12-18T05:36:05;-6.90;98.40
152;DHT22;68;48.792;9.164;2022-12-18T05:38:36;-6.90;97.80
152;DHT22;68;48.792;9.164;2022-12-18T05:41:03;-7.20;97.80
152;DHT22;68;48.792;9.164;2022-12-18T05:43:31;-7.40;98.40
152;DHT22;68;48.792;9.164;2022-12-18T05:45:58;-7.50;99.40
152;DHT22;68;48.792;9.164;2022-12-18T05:48:29;-7.40;99.40
152;DHT22;68;48.792;9.164;2022-12-18T05:50:55;-7.30;99.40
152;DHT22;68;48.792;9.164;2022-12-18T05:53:29;-7.00;99.40
152;DHT22;68;48.792;9.164;2022-12-18T05:56:00;-7.10;99.20
152;DHT22;68;48.792;9.164;2022-12-18T05:58:27;-7.10;99.00
152;DHT22;68;48.792;9.164;2022-12-18T06:00:53;-7.20;99.00
152;DHT22;68;48.792;9.164;2022-12-18T06:03:20;-7.30;99.00
152;DHT22;68;48.792;9.164;2022-12-18T06:05:47;-7.20;99.20
152;DHT22;68;48.792;9.164;2022-12-18T06:08:13;-7.00;99.20
152;DHT22;68;48.792;9.164;2022-12-18T06:10:41;-7.30;98.60
152;DHT22;68;48.792;9.164;2022-12-18T06:13:09;-7.40;99.00
152;DHT22;68;48.792;9.164;2022-12-18T06:15:36;-7.20;99.20
152;DHT22;68;48.792;9.164;2022-12-18T06:18:03;-7.20;99.00
152;DHT22;68;48.792;9.164;2022-12-18T06:20:30;-7.30;98.80
152;DHT22;68;48.792;9.164;2022-12-18T06:22:57;-7.30;98.80
152;DHT22;68;48.792;9.164;2022-12-18T06:25:24;-7.50;98.80
152;DHT22;68;48.792;9.164;2022-12-18T06:27:50;-7.40;99.20
152;DHT22;68;48.792;9.164;2022-12-18T06:30:19;-7.40;99.20
152;DHT22;68;48.792;9.164;2022-12-18T06:32:46;-7.30;99.30
152;DHT22;68;48.792;9.164;2022-12-18T06:35:14;-7.30;99.10
152;DHT22;68;48.792;9.164;2022-12-18T06:37:41;-7.40;98.80
152;DHT22;68;48.792;9.164;2022-12-18T06:40:08;-7.60;98.90
152;DHT22;68;48.792;9.164;2022-12-18T06:42:35;-7.60;99.30
152;DHT22;68;48.792;9.164;2022-12-18T06:45:02;-7.50;99.40
152;DHT22;68;48.792;9.164;2022-12-18T06:47:30;-7.70;99.40
152;DHT22;68;48.792;9.164;2022-12-18T06:49:57;-7.80;99.40
152;DHT22;68;48.792;9.164;2022-12-18T06:52:24;-7.80;99.40
152;DHT22;68;48.792;9.164;2022-12-18T06:54:50;-7.90;99.40
152;DHT22;68;48.792;9.164;2022-12-18T06:57:17;-8.00;99.40
152;DHT22;68;48.792;9.164;2022-12-18T06:59:44;-8.00;99.40
152;DHT22;68;48.792;9.164;2022-12-18T07:02:11;-8.00;99.40
152;DHT22;68;48.792;9.164;2022-12-18T07:04:39;-8.10;99.40
152;DHT22;68;48.792;9.164;2022-12-18T07:07:06;-8.00;99.40
152;DHT22;68;48.792;9.164;2022-12-18T07:09:33;-8.00;99.40
152;DHT22;68;48.792;9.164;2022-12-18T07:12:00;-7.90;99.40
152;DHT22;68;48.792;9.164;2022-12-18T07:14:26;-7.90;99.40
152;DHT22;68;48.792;9.164;2022-12-18T07:16:54;-8.00;99.40
152;DHT22;68;48.792;9.164;2022-12-18T07:19:24;-8.10;99.40
152;DHT22;68;48.792;9.164;2022-12-18T07:21:52;-8.10;99.40
152;DHT22;68;48.792;9.164;2022-12-18T07:26:46;-8.10;99.40
152;DHT22;68;48.792;9.164;2022-12-18T07:29:13;-8.10;99.40
152;DHT22;68;48.792;9.164;2022-12-18T07:31:39;-8.10;99.40
152;DHT22;68;48.792;9.164;2022-12-18T07:34:10;-8.00;99.40
152;DHT22;68;48.792;9.164;2022-12-18T07:36:37;-8.00;99.40
152;DHT22;68;48.792;9.164;2022-12-18T07:39:05;-8.00;99.40
152;DHT22;68;48.792;9.164;2022-12-18T07:41:32;-7.90;99.40
152;DHT22;68;48.792;9.164;2022-12-18T07:43:58;-7.80;99.40
152;DHT22;68;48.792;9.164;2022-12-18T07:46:25;-7.80;99.40
152;DHT22;68;48.792;9.164;2022-12-18T07:48:52;-7.80;99.40
152;DHT22;68;48.792;9.164;2022-12-18T07:51:19;-7.60;99.40
152;DHT22;68;48.792;9.164;2022-12-18T07:53:45;-7.40;99.40
152;DHT22;68;48.792;9.164;2022-12-18T07:56:13;-7.30;99.40
152;DHT22;68;48.792;9.164;2022-12-18T07:58:40;-7.10;99.40
152;DHT22;68;48.792;9.164;2022-12-18T08:01:09;-7.10;99.40
152;DHT22;68;48.792;9.164;2022-12-18T08:03:36;-6.90;99.40
152;DHT22;68;48.792;9.164;2022-12-18T08:06:05;-7.00;99.40
152;DHT22;68;48.792;9.164;2022-12-18T08:08:33;-7.10;99.40
152;DHT22;68;48.792;9.164;2022-12-18T08:11:01;-7.00;99.40
152;DHT22;68;48.792;9.164;2022-12-18T08:13:29;-6.80;99.40
152;DHT22;68;48.792;9.164;2022-12-18T08:15:57;-6.80;99.40
152;DHT22;68;48.792;9.164;2022-12-18T08:18:24;-6.60;99.40
152;DHT22;68;48.792;9.164;2022-12-18T08:20:51;-6.50;99.40
152;DHT22;68;48.792;9.164;2022-12-18T08:23:17;-6.10;98.70
152;DHT22;68;48.792;9.164;2022-12-18T08:25:44;-6.10;97.90
152;DHT22;68;48.792;9.164;2022-12-18T08:28:11;-6.00;97.00
152;DHT22;68;48.792;9.164;2022-12-18T08:30:39;-6.00;96.00
152;DHT22;68;48.792;9.164;2022-12-18T08:33:06;-6.10;96.00
152;DHT22;68;48.792;9.164;2022-12-18T08:35:35;-6.00;95.90
152;DHT22;68;48.792;9.164;2022-12-18T08:38:02;-6.00;95.50
152;DHT22;68;48.792;9.164;2022-12-18T08:40:29;-5.80;95.40
152;DHT22;68;48.792;9.164;2022-12-18T08:42:56;-5.70;95.50
152;DHT22;68;48.792;9.164;2022-12-18T08:45:41;-5.90;95.00
152;DHT22;68;48.792;9.164;2022-12-18T08:48:08;-5.90;95.10
152;DHT22;68;48.792;9.164;2022-12-18T08:50:35;-5.70;95.40
152;DHT22;68;48.792;9.164;2022-12-18T08:53:01;-5.80;95.20
152;DHT22;68;48.792;9.164;2022-12-18T08:55:28;-5.80;95.20
152;DHT22;68;48.792;9.164;2022-12-18T08:57:55;-5.80;95.50
152;DHT22;68;48.792;9.164;2022-12-18T09:00:22;-5.70;96.30
152;DHT22;68;48.792;9.164;2022-12-18T09:02:50;-5.90;96.40
152;DHT22;68;48.792;9.164;2022-12-18T09:05:17;-5.80;97.20
152;DHT22;68;48.792;9.164;2022-12-18T09:07:43;-5.80;97.20
152;DHT22;68;48.792;9.164;2022-12-18T09:10:10;-5.70;97.60
152;DHT22;68;48.792;9.164;2022-12-18T09:12:37;-5.70;97.10
152;DHT22;68;48.792;9.164;2022-12-18T09:15:04;-5.50;97.10
152;DHT22;68;48.792;9.164;2022-12-18T09:17:31;-5.40;97.00
152;DHT22;68;48.792;9.164;2022-12-18T09:19:59;-5.40;97.00
152;DHT22;68;48.792;9.164;2022-12-18T09:22:26;-5.30;97.00
152;DHT22;68;48.792;9.164;2022-12-18T09:24:53;-5.30;96.50
152;DHT22;68;48.792;9.164;2022-12-18T09:27:19;-5.30;96.50
152;DHT22;68;48.792;9.164;2022-12-18T09:29:46;-5.40;97.50
152;DHT22;68;48.792;9.164;2022-12-18T09:32:13;-5.10;98.20
152;DHT22;68;48.792;9.164;2022-12-18T09:34:40;-5.00;97.50
152;DHT22;68;48.792;9.164;2022-12-18T09:37:08;-4.80;97.10
152;DHT22;68;48.792;9.164;2022-12-18T09:39:38;-5.10;96.60
152;DHT22;68;48.792;9.164;2022-12-18T09:42:05;-5.00;97.00
152;DHT22;68;48.792;9.164;2022-12-18T09:44:35;-5.10;97.10
152;DHT22;68;48.792;9.164;2022-12-18T09:47:08;-4.90;97.20
152;DHT22;68;48.792;9.164;2022-12-18T09:49:40;-5.00;97.20
152;DHT22;68;48.792;9.164;2022-12-18T09:52:14;-5.00;97.70
152;DHT22;68;48.792;9.164;2022-12-18T09:54:48;-4.90;97.50
152;DHT22;68;48.792;9.164;2022-12-18T09:57:20;-4.80;97.80
152;DHT22;68;48.792;9.164;2022-12-18T09:59:51;-4.60;97.30
152;DHT22;68;48.792;9.164;2022-12-18T10:02:22;-4.60;96.70
152;DHT22;68;48.792;9.164;2022-12-18T10:04:56;-4.50;97.00
152;DHT22;68;48.792;9.164;2022-12-18T10:07:37;-4.50;96.70
152;DHT22;68;48.792;9.164;2022-12-18T10:10:10;-4.20;97.30
152;DHT22;68;48.792;9.164;2022-12-18T10:12:44;-4.00;97.30
152;DHT22;68;48.792;9.164;2022-12-18T10:15:19;-3.60;97.30
152;DHT22;68;48.792;9.164;2022-12-18T10:17:52;-3.30;96.40
152;DHT22;68;48.792;9.164;2022-12-18T10:20:24;-3.00;95.30
152;DHT22;68;48.792;9.164;2022-12-18T10:22:59;-3.00;92.60
152;DHT22;68;48.792;9.164;2022-12-18T10:25:31;-2.80;92.50
152;DHT22;68;48.792;9.164;2022-12-18T10:28:08;-3.00;91.50
152;DHT22;68;48.792;9.164;2022-12-18T10:30:38;-2.70;92.10
152;DHT22;68;48.792;9.164;2022-12-18T10:33:05;-2.50;91.20
152;DHT22;68;48.792;9.164;2022-12-18T10:35:32;-2.40;90.80
152;DHT22;68;48.792;9.164;2022-12-18T10:38:02;-2.40;90.30
152;DHT22;68;48.792;9.164;2022-12-18T10:40:30;-2.40;89.30
152;DHT22;68;48.792;9.164;2022-12-18T10:43:05;-2.10;90.00
152;DHT22;68;48.792;9.164;2022-12-18T10:45:32;-1.90;88.10
152;DHT22;68;48.792;9.164;2022-12-18T10:47:59;-2.00;88.30
152;DHT22;68;48.792;9.164;2022-12-18T10:50:28;-1.90;87.90
152;DHT22;68;48.792;9.164;2022-12-18T10:52:57;-2.00;88.00
152;DHT22;68;48.792;9.164;2022-12-18T10:55:30;-2.00;88.10
152;DHT22;68;48.792;9.164;2022-12-18T10:58:13;-2.20;88.60
152;DHT22;68;48.792;9.164;2022-12-18T11:00:43;-1.90;89.20
152;DHT22;68;48.792;9.164;2022-12-18T11:03:30;-1.40;89.30
152;DHT22;68;48.792;9.164;2022-12-18T11:06:06;-1.10;86.90
152;DHT22;68;48.792;9.164;2022-12-18T11:08:33;-0.90;86.90
152;DHT22;68;48.792;9.164;2022-12-18T11:11:01;-0.70;86.40
152;DHT22;68;48.792;9.164;2022-12-18T11:13:31;-0.90;86.80
152;DHT22;68;48.792;9.164;2022-12-18T11:15:58;-0.80;86.10
152;DHT22;68;48.792;9.164;2022-12-18T11:18:28;-1.20;86.20
152;DHT22;68;48.792;9.164;2022-12-18T11:20:56;-1.30;85.80
152;DHT22;68;48.792;9.164;2022-12-18T11:23:24;-2.00;87.40
152;DHT22;68;48.792;9.164;2022-12-18T11:25:54;-2.10;89.40
152;DHT22;68;48.792;9.164;2022-12-18T11:28:28;-2.30;90.50
152;DHT22;68;48.792;9.164;2022-12-18T11:31:21;-1.80;91.00
152;DHT22;68;48.792;9.164;2022-12-18T11:34:02;-1.90;89.50
152;DHT22;68;48.792;9.164;2022-12-18T11:36:33;-2.40;91.20
152;DHT22;68;48.792;9.164;2022-12-18T11:39:09;-2.10;92.30
152;DHT22;68;48.792;9.164;2022-12-18T11:41:42;-2.10;92.60
152;DHT22;68;48.792;9.164;2022-12-18T11:44:36;-1.80;91.30
152;DHT22;68;48.792;9.164;2022-12-18T11:47:10;-1.30;91.00
152;DHT22;68;48.792;9.164;2022-12-18T11:49:41;-0.90;89.60
152;DHT22;68;48.792;9.164;2022-12-18T11:52:18;-0.30;87.30
152;DHT22;68;48.792;9.164;2022-12-18T11:54:50;0.10;84.80
152;DHT22;68;48.792;9.164;2022-12-18T11:57:25;0.20;84.20
152;DHT22;68;48.792;9.164;2022-12-18T12:00:02;0.10;83.00
152;DHT22;68;48.792;9.164;2022-12-18T12:05:36;0.60;83.70
152;DHT22;68;48.792;9.164;2022-12-18T12:08:11;0.40;82.40
152;DHT22;68;48.792;9.164;2022-12-18T12:10:49;0.00;82.70
152;DHT22;68;48.792;9.164;2022-12-18T12:13:27;-0.30;84.40
152;DHT22;68;48.792;9.164;2022-12-18T12:16:07;-0.30;85.20
152;DHT22;68;48.792;9.164;2022-12-18T12:18:48;-0.20;85.10
152;DHT22;68;48.792;9.164;2022-12-18T12:21:22;-0.30;85.20
152;DHT22;68;48.792;9.164;2022-12-18T12:23:58;-0.10;84.70
152;DHT22;68;48.792;9.164;2022-12-18T12:26:33;-0.30;84.90
152;DHT22;68;48.792;9.164;2022-12-18T12:29:12;-0.30;84.80
152;DHT22;68;48.792;9.164;2022-12-18T12:31:55;-0.40;86.40
152;DHT22;68;48.792;9.164;2022-12-18T12:34:28;-0.60;85.50
152;DHT22;68;48.792;9.164;2022-12-18T12:37:07;-0.60;85.90
152;DHT22;68;48.792;9.164;2022-12-18T12:39:40;-0.80;87.00
152;DHT22;68;48.792;9.164;2022-12-18T12:42:14;-0.80;87.30
152;DHT22;68;48.792;9.164;2022-12-18T12:45:05;-1.10;87.20
152;DHT22;68;48.792;9.164;2022-12-18T12:47:38;-1.10;88.80
152;DHT22;68;48.792;9.164;2022-12-18T12:50:13;-0.90;88.60
152;DHT22;68;48.792;9.164;2022-12-18T12:52:44;-0.70;88.00
152;DHT22;68;48.792;9.164;2022-12-18T12:55:16;-0.80;86.80
152;DHT22;68;48.792;9.164;2022-12-18T12:57:50;-0.70;87.10
152;DHT22;68;48.792;9.164;2022-12-18T13:00:19;-0.60;87.40
152;DHT22;68;48.792;9.164;2022-12-18T13:02:52;-0.50;87.00
152;DHT22;68;48.792;9.164;2022-12-18T13:05:24;-0.40;86.40
152;DHT22;68;48.792;9.164;2022-12-18T13:07:56;-0.50;86.30
152;DHT22;68;48.792;9.164;2022-12-18T13:10:28;-0.50;86.30
152;DHT22;68;48.792;9.164;2022-12-18T13:12:58;-0.50;86.70
152;DHT22;68;48.792;9.164;2022-12-18T13:15:32;-0.60;87.40
152;DHT22;68;48.792;9.164;2022-12-18T13:18:11;-0.40;87.10
152;DHT22;68;48.792;9.164;2022-12-18T13:20:40;-0.20;86.60
152;DHT22;68;48.792;9.164;2022-12-18T13:23:33;-0.30;85.90
152;DHT22;68;48.792;9.164;2022-12-18T13:26:29;-0.20;85.90
152;DHT22;68;48.792;9.164;2022-12-18T13:28:58;-0.20;86.70
152;DHT22;68;48.792;9.164;2022-12-18T13:34:35;-0.10;86.00
152;DHT22;68;48.792;9.164;2022-12-18T13:40:54;-0.10;86.30
152;DHT22;68;48.792;9.164;2022-12-18T13:43:33;-0.20;85.90
152;DHT22;68;48.792;9.164;2022-12-18T13:46:06;-0.20;86.30
152;DHT22;68;48.792;9.164;2022-12-18T13:48:36;-0.40;86.00
152;DHT22;68;48.792;9.164;2022-12-18T13:51:07;-0.30;86.40
152;DHT22;68;48.792;9.164;2022-12-18T13:53:38;-0.20;86.50
152;DHT22;68;48.792;9.164;2022-12-18T13:56:08;-0.10;86.30
152;DHT22;68;48.792;9.164;2022-12-18T13:58:35;-0.20;86.60
152;DHT22;68;48.792;9.164;2022-12-18T14:01:02;-0.10;86.50
152;DHT22;68;48.792;9.164;2022-12-18T14:03:31;0.00;86.50
152;DHT22;68;48.792;9.164;2022-12-18T14:06:05;0.10;86.30
152;DHT22;68;48.792;9.164;2022-12-18T14:08:37;0.00;86.00
152;DHT22;68;48.792;9.164;2022-12-18T14:11:06;-0.10;87.50
152;DHT22;68;48.792;9.164;2022-12-18T14:13:36;-0.40;86.90
152;DHT22;68;48.792;9.164;2022-12-18T14:16:05;-0.50;88.40
152;DHT22;68;48.792;9.164;2022-12-18T14:18:38;-0.50;88.50
152;DHT22;68;48.792;9.164;2022-12-18T14:21:18;-0.50;88.40
152;DHT22;68;48.792;9.164;2022-12-18T14:23:45;-0.40;88.60
152;DHT22;68;48.792;9.164;2022-12-18T14:26:23;0.00;88.10
152;DHT22;68;48.792;9.164;2022-12-18T14:28:52;0.20;87.10
152;DHT22;68;48.792;9.164;2022-12-18T14:31:22;0.10;87.00
152;DHT22;68;48.792;9.164;2022-12-18T14:33:49;0.10;87.80
152;DHT22;68;48.792;9.164;2022-12-18T14:36:19;-0.20;87.40
152;DHT22;68;48.792;9.164;2022-12-18T14:38:49;-0.40;88.80
152;DHT22;68;48.792;9.164;2022-12-18T14:41:18;-0.60;89.20
152;DHT22;68;48.792;9.164;2022-12-18T14:43:47;-0.80;89.60
152;DHT22;68;48.792;9.164;2022-12-18T14:46:34;-0.70;90.20
152;DHT22;68;48.792;9.164;2022-12-18T14:49:03;-0.70;90.60
152;DHT22;68;48.792;9.164;2022-12-18T14:51:32;-1.00;90.80
152;DHT22;68;48.792;9.164;2022-12-18T14:54:01;-1.20;91.60
152;DHT22;68;48.792;9.164;2022-12-18T14:56:30;-1.20;92.20
152;DHT22;68;48.792;9.164;2022-12-18T14:58:59;-1.40;92.60
152;DHT22;68;48.792;9.164;2022-12-18T15:01:29;-1.30;93.00
152;DHT22;68;48.792;9.164;2022-12-18T15:03:57;-1.20;93.10
152;DHT22;68;48.792;9.164;2022-12-18T15:06:28;-1.30;92.60
152;DHT22;68;48.792;9.164;2022-12-18T15:08:57;-1.60;93.20
152;DHT22;68;48.792;9.164;2022-12-18T15:11:27;-1.60;93.70
152;DHT22;68;48.792;9.164;2022-12-18T15:13:53;-1.60;94.30
152;DHT22;68;48.792;9.164;2022-12-18T15:16:20;-1.70;94.30
152;DHT22;68;48.792;9.164;2022-12-18T15:18:47;-1.60;95.40
152;DHT22;68;48.792;9.164;2022-12-18T15:21:17;-1.70;94.50
152;DHT22;68;48.792;9.164;2022-12-18T15:23:47;-1.70;94.20
152;DHT22;68;48.792;9.164;2022-12-18T15:26:17;-1.70;94.40
152;DHT22;68;48.792;9.164;2022-12-18T15:28:46;-1.70;95.00
152;DHT22;68;48.792;9.164;2022-12-18T15:31:23;-1.70;95.40
152;DHT22;68;48.792;9.164;2022-12-18T15:34:05;-1.70;95.30
152;DHT22;68;48.792;9.164;2022-12-18T15:36:35;-1.60;94.90
152;DHT22;68;48.792;9.164;2022-12-18T15:39:04;-1.30;94.60
152;DHT22;68;48.792;9.164;2022-12-18T15:41:33;-1.30;94.60
152;DHT22;68;48.792;9.164;2022-12-18T15:44:00;-1.20;94.60
152;DHT22;68;48.792;9.164;2022-12-18T15:46:26;-1.20;94.20
152;DHT22;68;48.792;9.164;2022-12-18T15:48:53;-1.40;94.70
152;DHT22;68;48.792;9.164;2022-12-18T15:51:23;-1.20;94.70
152;DHT22;68;48.792;9.164;2022-12-18T15:53:53;-1.00;93.60
152;DHT22;68;48.792;9.164;2022-12-18T15:56:20;-0.90;92.60
152;DHT22;68;48.792;9.164;2022-12-18T15:59:09;-1.10;92.80
152;DHT22;68;48.792;9.164;2022-12-18T16:01:36;-1.10;92.60
152;DHT22;68;48.792;9.164;2022-12-18T16:04:03;-1.40;92.90
152;DHT22;68;48.792;9.164;2022-12-18T16:06:30;-1.60;93.60
152;DHT22;68;48.792;9.164;2022-12-18T16:08:57;-1.50;94.40
152;DHT22;68;48.792;9.164;2022-12-18T16:11:26;-1.50;94.10
152;DHT22;68;48.792;9.164;2022-12-18T16:14:08;-1.70;94.60
152;DHT22;68;48.792;9.164;2022-12-18T16:16:39;-1.80;95.40
152;DHT22;68;48.792;9.164;2022-12-18T16:19:07;-2.00;96.20
152;DHT22;68;48.792;9.164;2022-12-18T16:21:34;-1.80;97.00
152;DHT22;68;48.792;9.164;2022-12-18T16:24:00;-1.80;97.00
152;DHT22;68;48.792;9.164;2022-12-18T16:26:27;-1.90;97.10
152;DHT22;68;48.792;9.164;2022-12-18T16:28:54;-2.00;96.10
152;DHT22;68;48.792;9.164;2022-12-18T16:31:22;-2.00;96.20
152;DHT22;68;48.792;9.164;2022-12-18T16:33:49;-1.90;96.90
152;DHT22;68;48.792;9.164;2022-12-18T16:36:15;-1.60;96.60
152;DHT22;68;48.792;9.164;2022-12-18T16:38:42;-1.40;95.60
152;DHT22;68;48.792;9.164;2022-12-18T16:41:18;-1.30;94.60
152;DHT22;68;48.792;9.164;2022-12-18T16:44:01;-1.10;94.50
152;DHT22;68;48.792;9.164;2022-12-18T16:46:29;-0.90;93.30
152;DHT22;68;48.792;9.164;2022-12-18T16:48:57;-1.10;92.90
152;DHT22;68;48.792;9.164;2022-12-18T16:51:24;-1.10;93.30
152;DHT22;68;48.792;9.164;2022-12-18T16:53:51;-1.20;93.60
152;DHT22;68;48.792;9.164;2022-12-18T16:56:18;-1.40;94.50
152;DHT22;68;48.792;9.164;2022-12-18T16:58:50;-1.30;94.10
152;DHT22;68;48.792;9.164;2022-12-18T17:01:16;-1.20;93.50
152;DHT22;68;48.792;9.164;2022-12-18T17:03:50;-1.50;93.80
152;DHT22;68;48.792;9.164;2022-12-18T17:06:17;-1.70;95.80
152;DHT22;68;48.792;9.164;2022-12-18T17:08:44;-1.70;95.80
152;DHT22;68;48.792;9.164;2022-12-18T17:11:11;-1.80;96.10
152;DHT22;68;48.792;9.164;2022-12-18T17:13:37;-1.90;96.40
152;DHT22;68;48.792;9.164;2022-12-18T17:16:05;-2.00;96.30
152;DHT22;68;48.792;9.164;2022-12-18T17:18:33;-1.90;96.20
152;DHT22;68;48.792;9.164;2022-12-18T17:21:02;-2.00;96.20
152;DHT22;68;48.792;9.164;2022-12-18T17:23:29;-1.80;97.10
152;DHT22;68;48.792;9.164;2022-12-18T17:25:57;-1.80;96.60